Time;durP1;ratioP1;P1;durP2;ratioP2;P2;SDS_P1;SDS_P2;PMS_P1;PMS_P2;Temp;Humidity;BMP_temperature;BMP_pressure;BME280_temperature;BME280_humidity;BME280_pressure;Samples;Min_cycle;Max_cycle;Signal;HPM_P1;HPM_P2
2023/04/05 00:01:20;;;;;;;11.75;5.43;;;;;;;;;;5007006;28;20025;-69
2023/04/05 00:03:46;;;;;;;7.97;4.35;;;;;;;;;;5008057;28;20036;-69
2023/04/05 00:06:11;;;;;;;12.25;4.72;;;;;;;;;;5007210;28;20042;-70
2023/04/05 00:08:40;;;;;;;7.72;4.57;;;;;;;;;;5005994;28;20171;-70
2023/04/05 00:11:05;;;;;;;12.63;5.57;;;;;;;;;;5005258;28;20034;-69
2023/04/05 00:13:30;;;;;;;9.50;4.68;;;;;;;;;;5005635;28;20041;-69
2023/04/05 00:15:57;;;;;;;10.15;4.72;;;;;;;;;;5007449;28;20532;-69
2023/04/05 00:18:22;;;;;;;9.30;4.88;;;;;;;;;;5007736;28;20034;-70
2023/04/05 00:20:51;;;;;;;14.55;5.60;;;;;;;;;;5003901;28;20390;-69
2023/04/05 00:23:17;;;;;;;11.07;5.53;;;;;;;;;;5003415;28;20088;-69
2023/04/05 00:25:43;;;;;;;13.10;5.10;;;;;;;;;;5007145;28;20096;-70
2023/04/05 00:28:09;;;;;;;10.90;4.82;;;;;;;;;;5007096;28;20036;-69
2023/04/05 00:30:35;;;;;;;17.02;4.68;;;;;;;;;;5005941;28;20099;-69
2023/04/05 00:33:00;;;;;;;9.77;4.38;;;;;;;;;;5006882;28;20034;-69
2023/04/05 00:35:29;;;;;;;9.70;5.22;;;;;;;;;;5006744;28;20082;-69
2023/04/05 00:37:55;;;;;;;7.10;4.45;;;;;;;;;;5006715;28;20517;-69
2023/04/05 00:40:21;;;;;;;9.13;4.70;;;;;;;;;;5006527;28;20075;-69
2023/04/05 00:42:47;;;;;;;8.73;4.75;;;;;;;;;;5005197;28;20031;-70
2023/04/05 00:45:12;;;;;;;8.10;4.60;;;;;;;;;;5006598;28;20041;-70
2023/04/05 00:47:40;;;;;;;10.80;4.72;;;;;;;;;;5006748;28;20405;-69
2023/04/05 00:50:07;;;;;;;12.02;5.57;;;;;;;;;;5006128;28;20054;-69
2023/04/05 00:52:34;;;;;;;10.00;5.20;;;;;;;;;;5004743;28;20413;-69
2023/04/05 00:54:59;;;;;;;8.05;4.82;;;;;;;;;;5004678;28;20022;-70
2023/04/05 00:57:25;;;;;;;8.50;4.68;;;;;;;;;;5004834;28;20041;-69
2023/04/05 00:59:50;;;;;;;8.70;4.53;;;;;;;;;;5006504;28;20036;-70
2023/04/05 01:02:32;;;;;;;8.82;4.72;;;;;;;;;;5003404;28;20033;-69
2023/04/05 01:05:03;;;;;;;9.32;5.00;;;;;;;;;;5007093;28;20128;-69
2023/04/05 01:07:41;;;;;;;9.00;4.47;;;;;;;;;;5007430;28;20038;-69
2023/04/05 01:10:12;;;;;;;11.88;5.38;;;;;;;;;;5012951;28;20107;-70
2023/04/05 01:12:37;;;;;;;16.25;5.80;;;;;;;;;;5010934;28;20042;-70
2023/04/05 01:15:03;;;;;;;9.50;4.35;;;;;;;;;;5006908;28;20096;-69
2023/04/05 01:17:35;;;;;;;11.57;5.28;;;;;;;;;;5006317;28;20042;-69
2023/04/05 01:20:09;;;;;;;11.15;4.75;;;;;;;;;;5004644;28;20326;-70
2023/04/05 01:22:59;;;;;;;8.35;4.60;;;;;;;;;;5005945;28;20496;-69
2023/04/05 01:25:35;;;;;;;9.85;4.85;;;;;;;;;;5006243;28;20056;-69
2023/04/05 01:28:29;;;;;;;8.38;4.78;;;;;;;;;;5006147;28;20511;-69
2023/04/05 01:31:11;;;;;;;12.55;5.13;;;;;;;;;;5005859;28;20129;-70
2023/04/05 01:34:06;;;;;;;8.30;5.28;;;;;;;;;;5005703;28;20030;-70
2023/04/05 01:36:44;;;;;;;8.52;4.65;;;;;;;;;;5005455;28;20034;-70
2023/04/05 01:39:13;;;;;;;9.18;4.80;;;;;;;;;;5005908;28;20033;-69
2023/04/05 01:41:39;;;;;;;10.45;4.72;;;;;;;;;;5004296;28;20037;-69
2023/04/05 01:44:04;;;;;;;11.13;5.32;;;;;;;;;;5005667;28;20037;-69
2023/04/05 01:46:30;;;;;;;9.60;4.70;;;;;;;;;;5003881;28;20026;-69
2023/04/05 01:48:55;;;;;;;13.27;5.95;;;;;;;;;;5004615;28;20409;-70
2023/04/05 01:51:20;;;;;;;16.23;5.25;;;;;;;;;;5004740;28;20675;-70
2023/04/05 01:53:46;;;;;;;10.70;5.28;;;;;;;;;;5005789;28;20532;-70
2023/04/05 01:56:11;;;;;;;10.27;5.20;;;;;;;;;;5004893;28;20065;-69
2023/04/05 01:58:37;;;;;;;8.07;4.97;;;;;;;;;;5003783;28;20080;-69
2023/04/05 02:01:02;;;;;;;16.52;5.82;;;;;;;;;;5005703;28;20032;-70
2023/04/05 02:03:28;;;;;;;14.45;5.60;;;;;;;;;;5003547;28;20103;-69
2023/04/05 02:05:53;;;;;;;11.00;5.90;;;;;;;;;;5004885;28;20037;-70
2023/04/05 02:08:18;;;;;;;12.35;5.85;;;;;;;;;;5003738;28;20664;-69
2023/04/05 02:10:44;;;;;;;9.55;4.80;;;;;;;;;;5002876;28;20052;-69
2023/04/05 02:13:10;;;;;;;10.05;5.10;;;;;;;;;;5003532;28;20030;-70
2023/04/05 02:15:36;;;;;;;10.90;4.80;;;;;;;;;;5004559;28;20068;-70
2023/04/05 02:18:02;;;;;;;16.70;5.97;;;;;;;;;;5004695;28;20038;-69
2023/04/05 02:20:28;;;;;;;11.80;5.07;;;;;;;;;;5003821;28;20044;-69
2023/04/05 02:22:54;;;;;;;23.75;6.25;;;;;;;;;;5005295;28;20041;-69
2023/04/05 02:25:20;;;;;;;10.63;5.60;;;;;;;;;;5005252;28;20116;-69
2023/04/05 02:27:46;;;;;;;12.05;5.38;;;;;;;;;;5003582;28;20113;-70
2023/04/05 02:30:15;;;;;;;9.20;5.03;;;;;;;;;;5005840;28;20060;-69
2023/04/05 02:32:41;;;;;;;9.88;4.50;;;;;;;;;;5007857;28;20508;-70
2023/04/05 02:35:07;;;;;;;8.85;4.63;;;;;;;;;;5013740;28;20121;-69
2023/04/05 02:37:33;;;;;;;9.95;5.80;;;;;;;;;;5006291;28;20033;-69
2023/04/05 02:39:58;;;;;;;10.95;4.97;;;;;;;;;;5005113;28;20034;-69
2023/04/05 02:42:24;;;;;;;11.73;5.25;;;;;;;;;;5004752;28;20037;-69
2023/04/05 02:44:50;;;;;;;11.60;5.22;;;;;;;;;;5004686;28;20146;-69
2023/04/05 02:47:20;;;;;;;9.57;4.78;;;;;;;;;;5004535;28;20041;-69
2023/04/05 02:49:45;;;;;;;12.60;5.13;;;;;;;;;;5004217;28;20029;-69
2023/04/05 02:52:11;;;;;;;14.88;5.85;;;;;;;;;;5005227;28;20029;-70
2023/04/05 02:54:36;;;;;;;11.77;4.90;;;;;;;;;;5004160;28;20042;-70
2023/04/05 02:57:02;;;;;;;13.05;5.45;;;;;;;;;;5002571;28;20042;-69
2023/04/05 02:59:27;;;;;;;10.32;5.50;;;;;;;;;;5004722;28;20125;-70
2023/04/05 03:01:52;;;;;;;11.93;5.40;;;;;;;;;;5003841;28;20513;-69
2023/04/05 03:04:18;;;;;;;15.13;5.60;;;;;;;;;;5004055;28;20029;-69
2023/04/05 03:06:47;;;;;;;10.65;5.55;;;;;;;;;;5004403;28;20105;-70
2023/04/05 03:09:13;;;;;;;10.30;5.50;;;;;;;;;;5003892;28;20625;-70
2023/04/05 03:11:38;;;;;;;17.30;6.78;;;;;;;;;;5003791;28;20045;-69
2023/04/05 03:14:03;;;;;;;14.23;5.82;;;;;;;;;;5003727;28;20060;-69
2023/04/05 03:16:29;;;;;;;15.18;6.32;;;;;;;;;;5006145;28;20033;-70
2023/04/05 03:18:54;;;;;;;12.98;4.90;;;;;;;;;;5009856;28;20072;-70
2023/04/05 03:21:20;;;;;;;9.43;4.93;;;;;;;;;;5010407;28;20136;-69
2023/04/05 03:23:47;;;;;;;8.95;4.95;;;;;;;;;;5010662;28;20038;-70
2023/04/05 03:26:13;;;;;;;6.88;4.38;;;;;;;;;;5010575;28;20049;-69
2023/04/05 03:28:43;;;;;;;14.93;5.93;;;;;;;;;;5009105;28;20025;-69
2023/04/05 03:31:09;;;;;;;15.15;5.07;;;;;;;;;;5010406;28;20025;-69
2023/04/05 03:33:35;;;;;;;11.57;5.85;;;;;;;;;;5010306;28;20424;-70
2023/04/05 03:36:00;;;;;;;10.45;5.07;;;;;;;;;;5010507;28;20432;-70
2023/04/05 03:38:27;;;;;;;10.18;5.50;;;;;;;;;;5010503;28;20037;-69
2023/04/05 03:40:52;;;;;;;8.85;5.15;;;;;;;;;;5010245;28;20034;-69
2023/04/05 03:43:18;;;;;;;12.45;5.60;;;;;;;;;;5010580;28;20014;-69
2023/04/05 03:45:43;;;;;;;11.70;5.80;;;;;;;;;;5009527;28;20033;-70
2023/04/05 03:48:08;;;;;;;13.40;5.32;;;;;;;;;;5009615;28;20044;-70
2023/04/05 03:50:34;;;;;;;16.63;6.25;;;;;;;;;;5010325;28;20046;-70
2023/04/05 03:52:59;;;;;;;12.90;5.63;;;;;;;;;;5009552;28;20587;-69
2023/04/05 03:55:25;;;;;;;12.70;5.88;;;;;;;;;;5013823;28;20033;-69
2023/04/05 03:57:51;;;;;;;16.10;7.22;;;;;;;;;;5018510;28;20030;-70
2023/04/05 04:00:16;;;;;;;20.38;6.88;;;;;;;;;;5012737;28;20038;-69
2023/04/05 04:02:44;;;;;;;14.57;7.40;;;;;;;;;;5010647;28;20088;-69
2023/04/05 04:05:14;;;;;;;15.85;7.18;;;;;;;;;;5009367;28;20034;-69
2023/04/05 04:07:42;;;;;;;18.88;7.55;;;;;;;;;;5010599;28;20052;-69
2023/04/05 04:10:09;;;;;;;24.30;6.95;;;;;;;;;;5010505;28;20054;-69
2023/04/05 04:12:35;;;;;;;10.85;6.20;;;;;;;;;;5007980;28;20053;-70
2023/04/05 04:15:00;;;;;;;12.38;6.50;;;;;;;;;;5009293;28;20033;-70
2023/04/05 04:17:27;;;;;;;14.50;6.95;;;;;;;;;;5010023;28;20025;-70
2023/04/05 04:19:53;;;;;;;15.60;6.82;;;;;;;;;;5010535;28;20038;-69
2023/04/05 04:22:19;;;;;;;13.93;7.57;;;;;;;;;;5008411;28;20080;-69
2023/04/05 04:24:48;;;;;;;21.77;7.03;;;;;;;;;;5008736;28;20084;-69
2023/04/05 04:27:15;;;;;;;17.23;7.63;;;;;;;;;;5009798;28;20038;-70
2023/04/05 04:29:45;;;;;;;13.30;7.25;;;;;;;;;;5006313;28;20041;-69
2023/04/05 04:32:14;;;;;;;14.43;6.97;;;;;;;;;;4996390;28;20514;-70
2023/04/05 04:34:43;;;;;;;14.75;7.07;;;;;;;;;;4987051;28;20034;-69
2023/04/05 04:37:21;;;;;;;17.45;7.60;;;;;;;;;;4987891;28;20547;-70
2023/04/05 04:39:47;;;;;;;23.10;7.72;;;;;;;;;;4987612;28;20035;-69
2023/04/05 04:42:18;;;;;;;16.48;7.18;;;;;;;;;;4986898;28;20687;-70
2023/04/05 04:44:44;;;;;;;14.45;6.00;;;;;;;;;;4987343;28;20042;-70
2023/04/05 04:47:12;;;;;;;13.75;6.15;;;;;;;;;;4985026;28;20027;-69
2023/04/05 04:49:40;;;;;;;13.18;6.40;;;;;;;;;;4987248;28;20038;-70
2023/04/05 04:52:05;;;;;;;15.65;6.60;;;;;;;;;;4987212;28;20693;-70
2023/04/05 04:54:32;;;;;;;13.32;6.20;;;;;;;;;;4986886;28;20038;-70
2023/04/05 04:56:58;;;;;;;12.55;5.25;;;;;;;;;;4986273;28;20583;-70
2023/04/05 04:59:24;;;;;;;11.48;6.10;;;;;;;;;;4987184;28;20034;-69
2023/04/05 05:01:49;;;;;;;13.68;6.53;;;;;;;;;;4987014;28;20049;-69
2023/04/05 05:04:15;;;;;;;13.35;7.35;;;;;;;;;;4994416;28;20022;-69
2023/04/05 05:06:40;;;;;;;17.27;6.95;;;;;;;;;;5004080;28;20069;-70
2023/04/05 05:09:05;;;;;;;11.63;6.00;;;;;;;;;;5003838;28;20037;-70
2023/04/05 05:11:31;;;;;;;12.20;5.97;;;;;;;;;;5005575;28;20042;-69
2023/04/05 05:13:56;;;;;;;12.27;6.10;;;;;;;;;;5006056;28;20428;-70
2023/04/05 05:16:22;;;;;;;15.20;7.32;;;;;;;;;;5005640;28;20021;-69
2023/04/05 05:18:49;;;;;;;12.73;6.45;;;;;;;;;;5008839;28;20529;-69
2023/04/05 05:21:15;;;;;;;12.02;6.32;;;;;;;;;;5014415;28;20045;-70
2023/04/05 05:23:40;;;;;;;13.10;6.20;;;;;;;;;;5009929;28;20034;-69
2023/04/05 05:26:06;;;;;;;14.50;6.15;;;;;;;;;;5006662;28;20108;-70
2023/04/05 05:28:31;;;;;;;12.90;5.97;;;;;;;;;;5006759;28;20024;-70
2023/04/05 05:30:56;;;;;;;14.00;5.78;;;;;;;;;;5004531;28;20687;-70
2023/04/05 05:33:22;;;;;;;12.43;6.22;;;;;;;;;;5005930;28;20034;-70
2023/04/05 05:35:48;;;;;;;10.60;6.22;;;;;;;;;;5005914;28;20041;-69
2023/04/05 05:38:13;;;;;;;14.43;7.15;;;;;;;;;;5004966;28;20037;-69
2023/04/05 05:40:39;;;;;;;12.02;6.57;;;;;;;;;;5003697;28;20409;-69
2023/04/05 05:43:04;;;;;;;13.02;6.10;;;;;;;;;;5004702;28;20026;-69
2023/04/05 05:45:29;;;;;;;12.27;5.97;;;;;;;;;;5004876;28;20037;-69
2023/04/05 05:47:55;;;;;;;12.60;6.10;;;;;;;;;;5005817;28;20046;-69
2023/04/05 05:50:20;;;;;;;12.13;5.40;;;;;;;;;;5005581;28;20105;-69
2023/04/05 05:52:46;;;;;;;15.65;7.07;;;;;;;;;;5004442;28;20165;-69
2023/04/05 05:55:11;;;;;;;20.67;7.50;;;;;;;;;;5005457;28;20393;-69
2023/04/05 05:57:37;;;;;;;19.98;6.75;;;;;;;;;;5005124;28;20038;-70
2023/04/05 06:00:07;;;;;;;16.35;6.78;;;;;;;;;;5005300;28;20662;-69
2023/04/05 06:02:33;;;;;;;11.52;6.40;;;;;;;;;;5001960;28;20034;-70
2023/04/05 06:04:58;;;;;;;17.85;7.40;;;;;;;;;;5001025;28;20034;-69
2023/04/05 06:07:23;;;;;;;17.75;7.90;;;;;;;;;;5004979;28;20025;-69
2023/04/05 06:09:48;;;;;;;22.02;8.27;;;;;;;;;;5003469;28;20478;-69
2023/04/05 06:12:14;;;;;;;26.40;8.32;;;;;;;;;;5004013;28;20571;-69
2023/04/05 06:14:39;;;;;;;18.27;8.77;;;;;;;;;;5004322;28;20034;-69
2023/04/05 06:17:05;;;;;;;17.00;9.02;;;;;;;;;;5004812;28;20527;-69
2023/04/05 06:19:30;;;;;;;22.77;9.82;;;;;;;;;;5004246;28;20024;-69
2023/04/05 06:21:56;;;;;;;20.90;10.35;;;;;;;;;;5005277;28;20018;-69
2023/04/05 06:24:21;;;;;;;24.52;9.68;;;;;;;;;;5004417;28;20655;-69
2023/04/05 06:26:46;;;;;;;17.42;8.93;;;;;;;;;;5001063;28;20033;-68
2023/04/05 06:29:11;;;;;;;13.82;7.60;;;;;;;;;;4984495;28;20027;-68
2023/04/05 06:31:37;;;;;;;21.05;9.05;;;;;;;;;;4993924;28;20056;-69
2023/04/05 06:34:02;;;;;;;21.90;7.88;;;;;;;;;;5000746;28;20045;-68
2023/04/05 06:36:31;;;;;;;19.80;8.30;;;;;;;;;;4996044;28;20053;-68
2023/04/05 06:38:56;;;;;;;20.35;9.00;;;;;;;;;;4996003;28;20506;-68
2023/04/05 06:41:21;;;;;;;16.55;8.38;;;;;;;;;;5002380;28;20037;-68
2023/04/05 06:43:47;;;;;;;22.02;8.52;;;;;;;;;;5011015;28;20037;-69
2023/04/05 06:46:13;;;;;;;19.10;8.65;;;;;;;;;;5007583;28;20519;-69
2023/04/05 06:48:38;;;;;;;18.65;8.63;;;;;;;;;;5004218;28;20038;-69
2023/04/05 06:51:04;;;;;;;18.83;8.85;;;;;;;;;;5001735;28;20073;-69
2023/04/05 06:53:30;;;;;;;21.98;9.02;;;;;;;;;;4997281;28;20052;-69
2023/04/05 06:55:57;;;;;;;19.67;8.93;;;;;;;;;;5009181;28;20029;-69
2023/04/05 06:58:24;;;;;;;18.27;8.50;;;;;;;;;;5023537;28;20029;-68
2023/04/05 07:00:50;;;;;;;22.85;9.75;;;;;;;;;;5009362;28;20029;-69
2023/04/05 07:03:16;;;;;;;19.48;9.95;;;;;;;;;;5003360;28;20029;-69
2023/04/05 07:05:52;;;;;;;26.98;10.05;;;;;;;;;;4995935;28;20029;-69
2023/04/05 07:08:19;;;;;;;21.17;9.80;;;;;;;;;;4999365;28;20077;-70
2023/04/05 07:10:45;;;;;;;21.13;10.45;;;;;;;;;;4998883;28;20092;-69
2023/04/05 07:13:11;;;;;;;21.27;10.55;;;;;;;;;;5003957;28;20037;-69
2023/04/05 07:15:36;;;;;;;22.83;10.32;;;;;;;;;;5002167;28;20038;-69
2023/04/05 07:18:01;;;;;;;24.38;10.00;;;;;;;;;;5001238;28;20053;-69
2023/04/05 07:20:26;;;;;;;21.50;10.23;;;;;;;;;;5002259;28;20037;-69
2023/04/05 07:22:52;;;;;;;18.55;9.95;;;;;;;;;;4999706;28;20034;-69
2023/04/05 07:25:17;;;;;;;24.20;10.07;;;;;;;;;;5004613;28;20108;-69
2023/04/05 07:27:43;;;;;;;31.73;10.75;;;;;;;;;;5002325;28;20038;-70
2023/04/05 07:30:08;;;;;;;24.30;10.68;;;;;;;;;;4998629;28;20081;-69
2023/04/05 07:32:34;;;;;;;23.40;10.55;;;;;;;;;;4986168;28;20623;-69
2023/04/05 07:34:59;;;;;;;30.05;11.00;;;;;;;;;;4986822;28;20033;-69
2023/04/05 07:37:26;;;;;;;28.92;9.30;;;;;;;;;;4996198;28;20057;-69
2023/04/05 07:39:55;;;;;;;26.00;10.75;;;;;;;;;;5003277;28;20026;-69
2023/04/05 07:42:20;;;;;;;29.15;11.10;;;;;;;;;;5002118;28;20034;-70
2023/04/05 07:44:46;;;;;;;27.70;9.60;;;;;;;;;;5003471;28;20115;-69
2023/04/05 07:47:11;;;;;;;33.97;11.30;;;;;;;;;;5003900;28;20034;-69
2023/04/05 07:49:37;;;;;;;25.27;9.40;;;;;;;;;;5004203;28;20122;-69
2023/04/05 07:52:03;;;;;;;24.23;9.90;;;;;;;;;;5004424;28;20034;-70
2023/04/05 07:54:33;;;;;;;24.65;10.15;;;;;;;;;;5004192;28;20048;-70
2023/04/05 07:56:59;;;;;;;33.33;10.20;;;;;;;;;;5004591;28;20034;-70
2023/04/05 07:59:25;;;;;;;31.20;11.60;;;;;;;;;;5004333;28;20099;-70
2023/04/05 08:01:50;;;;;;;23.90;10.10;;;;;;;;;;5005023;28;20056;-70
2023/04/05 08:04:17;;;;;;;24.63;10.02;;;;;;;;;;5004105;28;20029;-71
2023/04/05 08:06:43;;;;;;;26.33;10.35;;;;;;;;;;5018515;28;20053;-70
2023/04/05 08:09:09;;;;;;;22.45;9.13;;;;;;;;;;5031041;28;20042;-70
2023/04/05 08:11:35;;;;;;;18.27;8.90;;;;;;;;;;5027714;28;20056;-70
2023/04/05 08:14:00;;;;;;;24.35;9.20;;;;;;;;;;5027729;28;20033;-69
2023/04/05 08:16:26;;;;;;;17.75;8.27;;;;;;;;;;5024168;28;20839;-69
2023/04/05 08:18:51;;;;;;;22.38;8.20;;;;;;;;;;5008213;28;20018;-69
2023/04/05 08:21:17;;;;;;;18.77;7.78;;;;;;;;;;5006067;28;20556;-69
2023/04/05 08:23:42;;;;;;;17.52;8.35;;;;;;;;;;5008031;28;20109;-69
2023/04/05 08:26:08;;;;;;;25.50;9.07;;;;;;;;;;5004316;28;20507;-69
2023/04/05 08:28:33;;;;;;;21.65;8.13;;;;;;;;;;5004134;28;20026;-71
2023/04/05 08:30:59;;;;;;;19.25;8.35;;;;;;;;;;5007283;28;20081;-70
2023/04/05 08:33:25;;;;;;;21.67;8.60;;;;;;;;;;5008042;28;20041;-70
2023/04/05 08:35:51;;;;;;;19.55;8.63;;;;;;;;;;5007127;28;20133;-70
2023/04/05 08:38:16;;;;;;;22.30;8.88;;;;;;;;;;5020471;28;20155;-69
2023/04/05 08:40:45;;;;;;;18.10;7.28;;;;;;;;;;4998451;28;20034;-70
2023/04/05 08:43:19;;;;;;;17.25;7.90;;;;;;;;;;5006320;28;20125;-70
2023/04/05 08:45:48;;;;;;;17.88;7.68;;;;;;;;;;5007039;28;20045;-70
2023/04/05 08:48:15;;;;;;;15.57;6.93;;;;;;;;;;4989569;28;20038;-70
2023/04/05 08:50:40;;;;;;;21.92;10.02;;;;;;;;;;4987646;28;20034;-69
2023/04/05 08:53:06;;;;;;;20.35;6.97;;;;;;;;;;4986907;28;20563;-69
2023/04/05 08:55:32;;;;;;;17.67;6.90;;;;;;;;;;4985771;28;20080;-69
2023/04/05 08:57:58;;;;;;;16.88;6.20;;;;;;;;;;4987568;28;20026;-69
2023/04/05 09:00:26;;;;;;;15.70;6.32;;;;;;;;;;4985780;28;20719;-69
2023/04/05 09:02:55;;;;;;;10.82;5.15;;;;;;;;;;4987802;28;20038;-69
2023/04/05 09:05:22;;;;;;;15.43;5.47;;;;;;;;;;5002873;28;20042;-69
2023/04/05 09:07:49;;;;;;;12.98;5.55;;;;;;;;;;5006208;28;20034;-69
2023/04/05 09:10:17;;;;;;;14.73;6.22;;;;;;;;;;5006901;28;20128;-69
2023/04/05 09:12:42;;;;;;;16.52;6.15;;;;;;;;;;5005030;28;20042;-70
2023/04/05 09:15:08;;;;;;;24.17;6.95;;;;;;;;;;5005962;28;20041;-69
2023/04/05 09:17:38;;;;;;;18.80;7.28;;;;;;;;;;5006518;28;20038;-69
2023/04/05 09:20:03;;;;;;;22.52;7.00;;;;;;;;;;5006970;28;20037;-69
2023/04/05 09:22:29;;;;;;;17.02;6.13;;;;;;;;;;5006163;28;20508;-69
2023/04/05 09:24:55;;;;;;;17.67;5.75;;;;;;;;;;5007784;28;20049;-70
2023/04/05 09:27:20;;;;;;;14.55;5.70;;;;;;;;;;5008540;28;20072;-69
2023/04/05 09:29:47;;;;;;;11.18;5.30;;;;;;;;;;5012556;28;20752;-69
2023/04/05 09:32:14;;;;;;;13.50;4.68;;;;;;;;;;5007025;28;20050;-69
2023/04/05 09:34:42;;;;;;;12.73;5.65;;;;;;;;;;5005826;28;20529;-69
2023/04/05 09:37:25;;;;;;;16.92;5.20;;;;;;;;;;5005929;28;20033;-70
2023/04/05 09:40:01;;;;;;;9.10;4.10;;;;;;;;;;5005167;28;20064;-70
2023/04/05 09:42:31;;;;;;;13.40;5.50;;;;;;;;;;5005683;28;20037;-69
2023/04/05 09:45:01;;;;;;;12.75;4.80;;;;;;;;;;5006659;28;20034;-69
2023/04/05 09:47:33;;;;;;;12.50;4.97;;;;;;;;;;5006136;28;20045;-69
2023/04/05 09:50:06;;;;;;;10.00;4.00;;;;;;;;;;5005908;28;20044;-69
2023/04/05 09:52:32;;;;;;;17.53;5.40;;;;;;;;;;5002070;28;20753;-69
2023/04/05 09:55:03;;;;;;;8.85;4.47;;;;;;;;;;5004023;28;20136;-70
2023/04/05 09:57:33;;;;;;;12.45;5.03;;;;;;;;;;5003613;28;20714;-69
2023/04/05 09:59:58;;;;;;;11.13;4.80;;;;;;;;;;5003700;28;20042;-69
2023/04/05 10:02:24;;;;;;;11.38;4.95;;;;;;;;;;5004132;28;20403;-70
2023/04/05 10:04:50;;;;;;;12.80;5.15;;;;;;;;;;5002128;28;20044;-69
2023/04/05 10:07:18;;;;;;;15.57;5.50;;;;;;;;;;5009550;28;20033;-69
2023/04/05 10:09:47;;;;;;;8.98;4.07;;;;;;;;;;5024486;28;20049;-69
2023/04/05 10:12:22;;;;;;;9.57;4.65;;;;;;;;;;5006549;28;20064;-69
2023/04/05 10:14:48;;;;;;;12.65;5.07;;;;;;;;;;5004814;28;20034;-70
2023/04/05 10:17:13;;;;;;;13.23;5.28;;;;;;;;;;5004250;28;20046;-70
2023/04/05 10:19:51;;;;;;;12.25;5.30;;;;;;;;;;4999588;28;20145;-69
2023/04/05 10:22:28;;;;;;;14.48;5.55;;;;;;;;;;5003017;28;20053;-69
2023/04/05 10:25:03;;;;;;;9.68;4.85;;;;;;;;;;5004575;28;20038;-69
2023/04/05 10:27:39;;;;;;;10.55;5.28;;;;;;;;;;5002513;28;20042;-69
2023/04/05 10:30:07;;;;;;;12.27;5.25;;;;;;;;;;5004120;28;20103;-70
2023/04/05 10:32:55;;;;;;;9.35;4.22;;;;;;;;;;5004537;28;20042;-69
2023/04/05 10:35:30;;;;;;;10.18;4.35;;;;;;;;;;5003654;28;20117;-69
2023/04/05 10:38:01;;;;;;;13.43;5.45;;;;;;;;;;5003357;28;20077;-69
2023/04/05 10:40:31;;;;;;;11.70;5.38;;;;;;;;;;5004824;28;20548;-69
2023/04/05 10:42:57;;;;;;;10.07;5.25;;;;;;;;;;5004990;28;20028;-70
2023/04/05 10:45:23;;;;;;;12.15;4.97;;;;;;;;;;5004893;28;20038;-70
2023/04/05 10:48:01;;;;;;;11.23;4.63;;;;;;;;;;5005692;28;20111;-70
2023/04/05 10:50:26;;;;;;;11.23;4.50;;;;;;;;;;5007925;28;20528;-70
2023/04/05 10:52:52;;;;;;;12.07;4.82;;;;;;;;;;5012457;28;20029;-68
2023/04/05 10:55:18;;;;;;;10.82;4.72;;;;;;;;;;5005463;28;20018;-69
2023/04/05 10:57:45;;;;;;;8.73;4.43;;;;;;;;;;5004251;28;20481;-69
2023/04/05 11:00:12;;;;;;;14.23;6.10;;;;;;;;;;5004649;28;20038;-69
2023/04/05 11:02:37;;;;;;;7.82;4.45;;;;;;;;;;5004463;28;20038;-70
2023/04/05 11:05:04;;;;;;;11.18;5.07;;;;;;;;;;5004228;28;20033;-69
2023/04/05 11:07:43;;;;;;;11.13;4.78;;;;;;;;;;5003108;28;20041;-69
2023/04/05 11:10:17;;;;;;;10.43;4.85;;;;;;;;;;5003203;28;20060;-69
2023/04/05 11:12:46;;;;;;;10.82;4.47;;;;;;;;;;5002301;28;20064;-69
2023/04/05 11:15:26;;;;;;;10.73;4.78;;;;;;;;;;5004051;28;20092;-69
2023/04/05 11:18:11;;;;;;;11.02;4.80;;;;;;;;;;5004387;28;20088;-69
2023/04/05 11:20:51;;;;;;;11.85;4.90;;;;;;;;;;5004006;28;20033;-69
2023/04/05 11:23:19;;;;;;;12.95;5.00;;;;;;;;;;5002520;28;20045;-69
2023/04/05 11:25:52;;;;;;;11.52;5.13;;;;;;;;;;5004117;28;20033;-69
2023/04/05 11:28:36;;;;;;;12.05;4.35;;;;;;;;;;4998558;28;20030;-69
2023/04/05 11:31:18;;;;;;;12.50;5.07;;;;;;;;;;4996121;28;20150;-70
2023/04/05 11:33:44;;;;;;;8.70;4.72;;;;;;;;;;4999487;28;20603;-69
2023/04/05 11:36:09;;;;;;;9.98;4.80;;;;;;;;;;5004227;28;20061;-70
2023/04/05 11:38:35;;;;;;;10.88;4.68;;;;;;;;;;5006776;28;20034;-69
2023/04/05 11:41:16;;;;;;;9.27;4.68;;;;;;;;;;5007399;28;20080;-69
2023/04/05 11:43:42;;;;;;;9.52;4.80;;;;;;;;;;5005363;28;20038;-69
2023/04/05 11:46:08;;;;;;;10.35;4.78;;;;;;;;;;5007524;28;20049;-70
2023/04/05 11:48:33;;;;;;;11.63;4.80;;;;;;;;;;5005092;28;20066;-70
2023/04/05 11:50:59;;;;;;;13.80;5.75;;;;;;;;;;5005122;28;20101;-69
2023/04/05 11:53:24;;;;;;;12.77;6.10;;;;;;;;;;5001839;28;20624;-70
2023/04/05 11:55:51;;;;;;;9.43;4.57;;;;;;;;;;5008610;28;20038;-70
2023/04/05 11:58:24;;;;;;;11.75;5.45;;;;;;;;;;5009546;28;20560;-69
2023/04/05 12:01:00;;;;;;;14.75;5.80;;;;;;;;;;5009426;28;20068;-70
2023/04/05 12:03:27;;;;;;;12.55;5.72;;;;;;;;;;5008852;28;20037;-69
2023/04/05 12:05:54;;;;;;;11.90;5.65;;;;;;;;;;5009113;28;20115;-69
2023/04/05 12:08:21;;;;;;;14.73;5.78;;;;;;;;;;5010036;28;20099;-69
2023/04/05 12:10:57;;;;;;;12.65;4.90;;;;;;;;;;5009337;28;20062;-69
2023/04/05 12:13:30;;;;;;;13.57;5.85;;;;;;;;;;5013637;28;20042;-69
2023/04/05 12:16:01;;;;;;;10.90;5.55;;;;;;;;;;5014913;28;20125;-70
2023/04/05 12:18:27;;;;;;;10.50;4.68;;;;;;;;;;5009297;28;20037;-70
2023/04/05 12:20:53;;;;;;;9.93;5.32;;;;;;;;;;5006436;28;20036;-70
2023/04/05 12:23:20;;;;;;;13.15;5.45;;;;;;;;;;5007722;28;20034;-69
2023/04/05 12:25:49;;;;;;;11.57;5.35;;;;;;;;;;5005528;28;20049;-69
2023/04/05 12:28:15;;;;;;;10.85;5.10;;;;;;;;;;5001348;28;20042;-69
2023/04/05 12:30:52;;;;;;;13.02;6.53;;;;;;;;;;5001820;28;20053;-69
2023/04/05 12:33:29;;;;;;;15.05;5.68;;;;;;;;;;5008299;28;20513;-69
2023/04/05 12:35:54;;;;;;;10.98;5.38;;;;;;;;;;5008967;28;20040;-69
2023/04/05 12:38:20;;;;;;;11.63;5.60;;;;;;;;;;5008445;28;20034;-69
2023/04/05 12:40:45;;;;;;;11.05;5.72;;;;;;;;;;5006347;28;20058;-70
2023/04/05 12:43:11;;;;;;;11.98;5.35;;;;;;;;;;5008020;28;20037;-69
2023/04/05 12:45:40;;;;;;;11.63;5.80;;;;;;;;;;5008492;28;20068;-70
2023/04/05 12:48:13;;;;;;;9.88;5.38;;;;;;;;;;5008729;28;20030;-69
2023/04/05 12:50:47;;;;;;;13.55;5.65;;;;;;;;;;5006780;28;20045;-70
2023/04/05 12:53:19;;;;;;;12.20;5.10;;;;;;;;;;5007614;28;20068;-70
2023/04/05 12:55:48;;;;;;;12.18;5.65;;;;;;;;;;5008066;28;20588;-70
2023/04/05 12:58:13;;;;;;;12.98;5.78;;;;;;;;;;5007728;28;20521;-70
2023/04/05 13:00:39;;;;;;;14.45;6.03;;;;;;;;;;5007886;28;20046;-70
2023/04/05 13:03:04;;;;;;;13.48;5.80;;;;;;;;;;5008130;28;20026;-69
2023/04/05 13:05:30;;;;;;;12.38;5.82;;;;;;;;;;5006179;28;20030;-69
2023/04/05 13:07:55;;;;;;;15.35;6.03;;;;;;;;;;5008818;28;20037;-70
2023/04/05 13:10:23;;;;;;;12.10;5.43;;;;;;;;;;5007808;28;20480;-69
2023/04/05 13:12:48;;;;;;;11.68;5.57;;;;;;;;;;5008004;28;20050;-70
2023/04/05 13:15:15;;;;;;;12.63;5.53;;;;;;;;;;5008608;28;20052;-70
2023/04/05 13:17:42;;;;;;;14.15;5.93;;;;;;;;;;5008290;28;20018;-70
2023/04/05 13:20:08;;;;;;;12.43;6.07;;;;;;;;;;5008397;28;20065;-70
2023/04/05 13:22:34;;;;;;;13.32;5.88;;;;;;;;;;5006993;28;20038;-69
2023/04/05 13:24:59;;;;;;;16.13;6.78;;;;;;;;;;5007447;28;20594;-69
2023/04/05 13:27:24;;;;;;;12.70;6.38;;;;;;;;;;5006051;28;20034;-69
2023/04/05 13:29:50;;;;;;;13.10;5.93;;;;;;;;;;5008443;28;20529;-70
2023/04/05 13:32:15;;;;;;;9.80;5.80;;;;;;;;;;5008277;28;20484;-70
2023/04/05 13:34:40;;;;;;;10.80;5.25;;;;;;;;;;5009983;28;20775;-69
2023/04/05 13:37:06;;;;;;;11.30;5.55;;;;;;;;;;5013280;28;20033;-69
2023/04/05 13:39:31;;;;;;;12.32;5.90;;;;;;;;;;5010583;28;20030;-70
2023/04/05 13:41:57;;;;;;;12.90;5.88;;;;;;;;;;4996980;28;20410;-69
2023/04/05 13:44:22;;;;;;;15.05;6.03;;;;;;;;;;4996439;28;20068;-69
2023/04/05 13:46:48;;;;;;;13.55;5.80;;;;;;;;;;4996487;28;20046;-70
2023/04/05 13:49:13;;;;;;;11.77;5.70;;;;;;;;;;5001493;28;20129;-69
2023/04/05 13:51:40;;;;;;;19.50;6.43;;;;;;;;;;5006567;28;20042;-70
2023/04/05 13:54:10;;;;;;;12.60;5.20;;;;;;;;;;5005220;28;20275;-70
2023/04/05 13:56:36;;;;;;;14.23;4.95;;;;;;;;;;5006413;28;20034;-70
2023/04/05 13:59:02;;;;;;;10.55;4.53;;;;;;;;;;5005615;28;20045;-70
2023/04/05 14:01:27;;;;;;;11.85;5.30;;;;;;;;;;5004167;28;20042;-70
2023/04/05 14:03:52;;;;;;;11.30;5.18;;;;;;;;;;5002945;28;20042;-69
2023/04/05 14:06:18;;;;;;;13.25;6.00;;;;;;;;;;5004583;28;20519;-70
2023/04/05 14:08:43;;;;;;;12.40;5.93;;;;;;;;;;5006184;28;20034;-69
2023/04/05 14:11:08;;;;;;;12.15;5.40;;;;;;;;;;5003749;28;20061;-69
2023/04/05 14:13:34;;;;;;;10.32;5.13;;;;;;;;;;5005276;28;20398;-70
2023/04/05 14:15:59;;;;;;;14.88;5.68;;;;;;;;;;5001271;28;20038;-69
2023/04/05 14:18:25;;;;;;;17.73;6.43;;;;;;;;;;5003171;28;20041;-70
2023/04/05 14:20:51;;;;;;;12.45;6.05;;;;;;;;;;5003437;28;20105;-70
2023/04/05 14:23:17;;;;;;;10.32;4.97;;;;;;;;;;5005562;28;20029;-70
2023/04/05 14:25:42;;;;;;;13.70;6.25;;;;;;;;;;5004879;28;20068;-70
2023/04/05 14:28:07;;;;;;;15.18;6.32;;;;;;;;;;5004902;28;20045;-70
2023/04/05 14:30:33;;;;;;;13.98;6.30;;;;;;;;;;5006268;28;20041;-70
2023/04/05 14:32:58;;;;;;;13.88;5.85;;;;;;;;;;5005246;28;20025;-70